createdAt,value
2023-05-06T00:01:08.979Z,101549.13
2023-05-06T00:03:36.697Z,101545.56
2023-05-06T00:06:06.989Z,101542.00
2023-05-06T00:08:35.326Z,101543.75
2023-05-06T00:11:02.948Z,101541.97
2023-05-06T00:13:30.518Z,101539.31
2023-05-06T00:15:58.158Z,101536.63
2023-05-06T00:18:25.848Z,101538.38
2023-05-06T00:20:53.361Z,101538.38
2023-05-06T00:23:20.892Z,101536.66
2023-05-06T00:25:48.399Z,101536.66
2023-05-06T00:28:15.945Z,101533.19
2023-05-06T00:30:43.597Z,101532.38
2023-05-06T00:33:11.358Z,101533.31
2023-05-06T00:35:41.160Z,101533.41
2023-05-06T00:38:11.357Z,101520.28
2023-05-06T00:40:39.605Z,101526.53
2023-05-06T00:43:07.925Z,101518.63
2023-05-06T00:45:38.121Z,101509.03
2023-05-06T00:48:07.432Z,101515.19
2023-05-06T00:50:36.509Z,101521.41
2023-05-06T00:53:08.711Z,101520.56
2023-05-06T00:55:37.423Z,101516.25
2023-05-06T00:58:05.774Z,101514.56
2023-05-06T01:00:33.376Z,101506.69
2023-05-06T01:03:00.998Z,101514.63
2023-05-06T01:05:40.058Z,101506.81
2023-05-06T01:08:34.720Z,101513.03
2023-05-06T01:11:33.729Z,101507.00
2023-05-06T01:14:24.215Z,101509.72
2023-05-06T01:16:55.943Z,101508.88
2023-05-06T01:19:53.388Z,101506.22
2023-05-06T01:22:23.274Z,101505.41
2023-05-06T01:24:50.892Z,101507.13
2023-05-06T01:27:18.636Z,101501.91
2023-05-06T01:29:48.237Z,101502.81
2023-05-06T01:32:40.226Z,101507.19
2023-05-06T01:35:36.372Z,101509.00
2023-05-06T01:38:36.753Z,101510.72
2023-05-06T01:41:05.836Z,101513.44
2023-05-06T01:43:41.928Z,101507.25
2023-05-06T01:46:22.465Z,101508.19
2023-05-06T01:48:55.199Z,101512.66
2023-05-06T01:51:24.181Z,101502.22
2023-05-06T01:53:51.760Z,101510.22
2023-05-06T01:56:19.331Z,101511.16
2023-05-06T01:58:46.882Z,101505.97
2023-05-06T02:01:15.210Z,101513.94
2023-05-06T02:03:42.890Z,101511.38
2023-05-06T02:06:10.776Z,101516.69
2023-05-06T02:08:43.125Z,101516.72
2023-05-06T02:11:15.687Z,101517.66
2023-05-06T02:13:43.742Z,101524.72
2023-05-06T02:16:11.797Z,101524.78
2023-05-06T02:18:39.647Z,101527.47
2023-05-06T02:21:09.791Z,101520.53
2023-05-06T02:23:37.416Z,101517.06
2023-05-06T02:26:05.194Z,101515.38
2023-05-06T02:28:34.071Z,101525.91
2023-05-06T02:31:01.723Z,101525.06
2023-05-06T02:33:29.458Z,101531.28
2023-05-06T02:35:56.991Z,101523.44
2023-05-06T02:38:25.686Z,101529.66
2023-05-06T02:40:54.252Z,101522.72
2023-05-06T02:43:23.110Z,101521.94
2023-05-06T02:45:50.779Z,101529.00
2023-05-06T02:48:19.749Z,101524.69
2023-05-06T02:50:47.326Z,101523.00
2023-05-06T02:53:14.850Z,101515.16
2023-05-06T02:55:42.438Z,101519.63
2023-05-06T02:58:10.232Z,101524.91
2023-05-06T03:00:37.830Z,101517.03
2023-05-06T03:03:05.724Z,101521.50
2023-05-06T03:05:33.372Z,101525.03
2023-05-06T03:08:01.048Z,101513.66
2023-05-06T03:10:28.776Z,101499.72
2023-05-06T03:12:58.074Z,101512.03
2023-05-06T03:15:26.040Z,101512.94
2023-05-06T03:17:54.639Z,101506.88
2023-05-06T03:20:22.678Z,101513.03
2023-05-06T03:22:54.876Z,101509.59
2023-05-06T03:25:23.099Z,101510.53
2023-05-06T03:27:50.849Z,101519.28
2023-05-06T03:30:21.905Z,101507.91
2023-05-06T03:32:51.883Z,101507.03
2023-05-06T03:35:27.371Z,101510.56
2023-05-06T03:37:58.340Z,101511.47
2023-05-06T03:40:31.110Z,101503.59
2023-05-06T03:42:59.172Z,101502.75
2023-05-06T03:45:27.171Z,101504.53
2023-05-06T03:47:58.439Z,101511.56
2023-05-06T03:50:26.849Z,101510.75
2023-05-06T03:52:55.244Z,101509.91
2023-05-06T03:55:26.654Z,101509.97
2023-05-06T03:57:55.217Z,101508.22
2023-05-06T04:00:23.065Z,101508.25
2023-05-06T04:02:53.923Z,101509.13
2023-05-06T04:05:31.657Z,101504.81
2023-05-06T04:07:59.363Z,101507.44
2023-05-06T04:10:27.197Z,101502.25
2023-05-06T04:13:00.081Z,101502.28
2023-05-06T04:15:37.668Z,101498.91
2023-05-06T04:18:09.195Z,101514.75
2023-05-06T04:20:39.662Z,101510.41
2023-05-06T04:23:07.591Z,101517.44
2023-05-06T04:25:35.819Z,101516.59
2023-05-06T04:28:04.173Z,101517.44
2023-05-06T04:30:32.551Z,101519.16
2023-05-06T04:33:00.388Z,101527.88
2023-05-06T04:35:28.275Z,101527.88
2023-05-06T04:37:57.940Z,101532.28
2023-05-06T04:40:30.724Z,101541.00
2023-05-06T04:42:58.408Z,101534.88
2023-05-06T04:45:29.854Z,101541.84
2023-05-06T04:47:57.692Z,101543.56
2023-05-06T04:50:26.250Z,101548.81
2023-05-06T04:52:54.682Z,101544.47
2023-05-06T04:55:22.320Z,101549.69
2023-05-06T04:57:53.121Z,101547.91
2023-05-06T05:00:20.684Z,101550.50
2023-05-06T05:02:48.568Z,101548.78
2023-05-06T05:05:18.213Z,101553.16
2023-05-06T05:07:49.051Z,101553.16
2023-05-06T05:10:17.442Z,101557.47
2023-05-06T05:12:46.319Z,101555.59
2023-05-06T05:15:14.168Z,101552.00
2023-05-06T05:17:42.570Z,101554.47
2023-05-06T05:20:10.756Z,101560.41
2023-05-06T05:22:38.804Z,101562.91
2023-05-06T05:25:08.464Z,101564.44
2023-05-06T05:27:36.532Z,101567.72
2023-05-06T05:30:04.940Z,101571.88
2023-05-06T05:32:35.710Z,101574.34
2023-05-06T05:35:05.263Z,101574.13
2023-05-06T05:37:32.840Z,101576.59
2023-05-06T05:40:00.860Z,101573.81
2023-05-06T05:42:31.136Z,101580.66
2023-05-06T05:44:58.855Z,101572.53
2023-05-06T05:47:26.976Z,101577.56
2023-05-06T05:49:54.904Z,101575.59
2023-05-06T05:52:24.119Z,101573.66
2023-05-06T05:54:52.160Z,101573.44
2023-05-06T05:57:19.807Z,101574.19
2023-05-06T05:59:47.625Z,101584.53
2023-05-06T06:02:15.307Z,101577.34
2023-05-06T06:04:43.120Z,101578.84
2023-05-06T06:07:11.118Z,101577.75
2023-05-06T06:09:41.931Z,101578.41
2023-05-06T06:12:09.972Z,101580.75
2023-05-06T06:14:40.652Z,101583.13
2023-05-06T06:17:08.701Z,101585.44
2023-05-06T06:19:36.617Z,101579.00
2023-05-06T06:22:04.207Z,101585.72
2023-05-06T06:24:34.910Z,101582.84
2023-05-06T06:27:02.484Z,101577.28
2023-05-06T06:29:30.116Z,101581.38
2023-05-06T06:31:59.532Z,101582.75
2023-05-06T06:34:27.140Z,101583.22
2023-05-06T06:36:54.703Z,101583.69
2023-05-06T06:39:22.360Z,101587.75
2023-05-06T06:41:49.937Z,101581.16
2023-05-06T06:44:17.516Z,101584.25
2023-05-06T06:46:45.152Z,101582.88
2023-05-06T06:49:12.685Z,101582.41
2023-05-06T06:51:40.444Z,101582.00
2023-05-06T06:54:08.026Z,101587.00
2023-05-06T06:56:35.793Z,101597.31
2023-05-06T06:59:03.384Z,101597.88
2023-05-06T07:01:30.944Z,101593.03
2023-05-06T07:03:58.485Z,101589.91
2023-05-06T07:06:26.139Z,101600.72
2023-05-06T07:08:53.757Z,101593.19
2023-05-06T07:11:21.277Z,101597.03
2023-05-06T07:13:48.829Z,101601.81
2023-05-06T07:16:16.620Z,101603.75
2023-05-06T07:18:45.121Z,101596.69
2023-05-06T07:21:12.668Z,101600.50
2023-05-06T07:23:40.288Z,101599.53
2023-05-06T07:26:07.819Z,101606.53
2023-05-06T07:28:35.478Z,101603.34
2023-05-06T07:31:03.081Z,101607.97
2023-05-06T07:33:30.626Z,101603.88
2023-05-06T07:35:58.207Z,101606.00
2023-05-06T07:38:25.789Z,101608.91
2023-05-06T07:40:53.467Z,101614.53
2023-05-06T07:43:22.811Z,101612.19
2023-05-06T07:45:50.552Z,101620.59
2023-05-06T07:48:20.181Z,101612.75
2023-05-06T07:50:47.947Z,101611.09
2023-05-06T07:53:15.748Z,101615.91
2023-05-06T07:55:43.346Z,101616.09
2023-05-06T07:58:11.419Z,101608.31
2023-05-06T08:00:39.074Z,101618.47
2023-05-06T08:03:06.824Z,101607.53
2023-05-06T08:05:34.456Z,101620.47
2023-05-06T08:08:02.208Z,101619.47
2023-05-06T08:10:29.867Z,101611.97
2023-05-06T08:12:57.538Z,101613.22
2023-05-06T08:15:25.325Z,101612.44
2023-05-06T08:17:52.946Z,101625.16
2023-05-06T08:20:21.001Z,101617.34
2023-05-06T08:22:48.558Z,101619.31
2023-05-06T08:25:16.865Z,101620.06
2023-05-06T08:27:45.686Z,101611.31
2023-05-06T08:30:14.416Z,101612.94
2023-05-06T08:32:42.119Z,101617.69
2023-05-06T08:35:10.252Z,101617.34
2023-05-06T08:37:38.104Z,101607.44
2023-05-06T08:40:23.510Z,101606.91
2023-05-06T08:42:51.080Z,101610.81
2023-05-06T08:45:19.680Z,101610.44
2023-05-06T08:47:47.965Z,101611.94
2023-05-06T08:50:15.992Z,101605.19
2023-05-06T08:52:44.936Z,101598.91
2023-05-06T08:55:13.774Z,101603.56
2023-05-06T08:57:44.952Z,101590.97
2023-05-06T09:00:13.299Z,101585.56
2023-05-06T09:02:43.385Z,101594.78
2023-05-06T09:05:12.376Z,101585.22
2023-05-06T09:07:40.089Z,101584.63
2023-05-06T09:10:15.229Z,101588.78
2023-05-06T09:12:42.867Z,101589.06
2023-05-06T09:15:13.515Z,101583.25
2023-05-06T09:17:41.427Z,101586.78
2023-05-06T09:20:12.855Z,101582.41
2023-05-06T09:22:40.928Z,101584.06
2023-05-06T09:25:09.960Z,101580.25
2023-05-06T09:27:37.849Z,101579.34
2023-05-06T09:30:14.394Z,101584.28
2023-05-06T09:32:42.081Z,101577.47
2023-05-06T09:35:11.198Z,101583.78
2023-05-06T09:37:39.563Z,101571.88
2023-05-06T09:40:09.354Z,101579.91
2023-05-06T09:42:37.722Z,101585.91
2023-05-06T09:45:09.016Z,101578.94
2023-05-06T09:47:38.157Z,101572.53
2023-05-06T09:50:09.061Z,101577.59
2023-05-06T09:52:37.563Z,101570.00
2023-05-06T09:55:07.331Z,101576.88
2023-05-06T09:57:37.091Z,101575.72
2023-05-06T10:00:10.622Z,101581.66
2023-05-06T10:02:44.920Z,101574.22
2023-05-06T10:05:13.819Z,101575.78
2023-05-06T10:07:42.255Z,101572.16
2023-05-06T10:10:12.126Z,101579.72
2023-05-06T10:12:40.135Z,101562.38
2023-05-06T10:15:09.323Z,101567.34
2023-05-06T10:17:41.157Z,101565.19
2023-05-06T10:20:14.011Z,101564.03
2023-05-06T10:23:12.559Z,101557.84
2023-05-06T10:25:42.749Z,101553.38
2023-05-06T10:28:15.720Z,101548.25
2023-05-06T10:30:58.716Z,101553.22
2023-05-06T10:33:28.480Z,101555.63
2023-05-06T10:36:20.146Z,101554.13
2023-05-06T10:38:56.808Z,101548.34
2023-05-06T10:41:28.120Z,101544.84
2023-05-06T10:43:57.525Z,101543.84
2023-05-06T10:46:27.826Z,101537.94
2023-05-06T10:49:13.872Z,101535.81
2023-05-06T10:51:44.409Z,101530.19
2023-05-06T10:54:32.218Z,101530.94
2023-05-06T10:56:59.663Z,101536.47
2023-05-06T10:59:29.946Z,101527.75
2023-05-06T11:02:09.341Z,101531.00
2023-05-06T11:04:37.670Z,101515.91
2023-05-06T11:07:21.845Z,101515.00
2023-05-06T11:10:00.647Z,101522.94
2023-05-06T11:12:53.585Z,101529.47
2023-05-06T11:15:36.303Z,101516.47
2023-05-06T11:18:29.199Z,101518.31
2023-05-06T11:21:05.121Z,101525.41
2023-05-06T11:23:41.957Z,101518.63
2023-05-06T11:26:11.152Z,101511.31
2023-05-06T11:28:47.807Z,101509.91
2023-05-06T11:31:16.389Z,101509.91
2023-05-06T11:33:48.376Z,101516.44
2023-05-06T11:36:19.201Z,101514.50
2023-05-06T11:38:51.242Z,101505.38
2023-05-06T11:41:19.582Z,101507.63
2023-05-06T11:43:52.724Z,101514.94
2023-05-06T11:46:23.153Z,101512.91
2023-05-06T11:48:52.109Z,101511.06
2023-05-06T11:51:24.322Z,101506.69
2023-05-06T11:54:03.875Z,101504.25
2023-05-06T11:56:41.666Z,101505.63
2023-05-06T11:59:09.242Z,101511.63
2023-05-06T12:01:36.877Z,101514.75
2023-05-06T12:04:05.038Z,101505.09
2023-05-06T12:06:40.134Z,101508.97
2023-05-06T12:09:12.897Z,101511.22
2023-05-06T12:11:46.504Z,101506.38
2023-05-06T12:14:14.753Z,101499.31
2023-05-06T12:16:42.610Z,101506.47
2023-05-06T12:19:10.863Z,101495.53
2023-05-06T12:21:39.221Z,101501.84
2023-05-06T12:24:07.073Z,101503.03
2023-05-06T12:26:49.641Z,101497.88
2023-05-06T12:29:17.932Z,101502.28
2023-05-06T12:31:47.268Z,101496.09
2023-05-06T12:34:18.169Z,101489.22
2023-05-06T12:36:47.198Z,101492.34
2023-05-06T12:39:14.949Z,101496.09
2023-05-06T12:41:45.706Z,101491.59
2023-05-06T12:44:39.389Z,101500.69
2023-05-06T12:47:28.327Z,101503.31
2023-05-06T12:50:04.262Z,101495.28
2023-05-06T12:52:32.121Z,101492.44
2023-05-06T12:55:02.392Z,101497.59
2023-05-06T12:57:30.013Z,101500.84
2023-05-06T12:59:57.739Z,101493.66
2023-05-06T13:02:28.701Z,101491.53
2023-05-06T13:04:56.946Z,101492.47
2023-05-06T13:07:24.564Z,101493.63
2023-05-06T13:09:52.228Z,101496.09
2023-05-06T13:12:19.913Z,101485.97
2023-05-06T13:14:47.558Z,101490.25
2023-05-06T13:17:15.262Z,101495.38
2023-05-06T13:19:42.997Z,101486.19
2023-05-06T13:22:10.618Z,101488.69
2023-05-06T13:24:38.624Z,101488.31
2023-05-06T13:27:08.928Z,101494.53
2023-05-06T13:29:36.585Z,101489.91
2023-05-06T13:32:06.947Z,101488.31
2023-05-06T13:34:36.211Z,101487.22
2023-05-06T13:37:03.822Z,101479.88
2023-05-06T13:39:31.607Z,101483.56
2023-05-06T13:42:02.917Z,101481.59
2023-05-06T13:44:33.652Z,101487.94
2023-05-06T13:47:01.335Z,101482.31
2023-05-06T13:49:30.066Z,101478.50
2023-05-06T13:51:58.328Z,101477.66
2023-05-06T13:54:26.234Z,101481.81
2023-05-06T13:56:53.866Z,101479.50
2023-05-06T13:59:21.494Z,101477.41
2023-05-06T14:01:50.244Z,101473.97
2023-05-06T14:04:17.876Z,101470.06
2023-05-06T14:06:45.379Z,101465.69
2023-05-06T14:09:13.090Z,101464.00
2023-05-06T14:11:40.697Z,101458.75
2023-05-06T14:14:08.367Z,101457.38
2023-05-06T14:16:35.975Z,101458.75
2023-05-06T14:19:05.773Z,101450.84
2023-05-06T14:21:34.599Z,101455.16
2023-05-06T14:24:02.155Z,101460.06
2023-05-06T14:26:29.748Z,101458.72
2023-05-06T14:28:57.355Z,101446.59
2023-05-06T14:31:25.052Z,101450.91
2023-05-06T14:33:52.658Z,101448.81
2023-05-06T14:36:20.367Z,101450.44
2023-05-06T14:38:48.004Z,101452.97
2023-05-06T14:41:17.215Z,101457.28
2023-05-06T14:43:44.725Z,101442.00
2023-05-06T14:46:14.530Z,101439.19
2023-05-06T14:48:42.517Z,101443.69
2023-05-06T14:51:10.122Z,101430.97
2023-05-06T14:53:37.848Z,101434.91
2023-05-06T14:56:09.993Z,101436.50
2023-05-06T14:58:39.330Z,101430.38
2023-05-06T15:01:07.394Z,101420.47
2023-05-06T15:03:36.357Z,101427.06
2023-05-06T15:06:04.226Z,101427.31
2023-05-06T15:08:32.207Z,101434.03
2023-05-06T15:11:01.651Z,101439.91
2023-05-06T15:13:30.708Z,101432.19
2023-05-06T15:16:01.108Z,101432.91
2023-05-06T15:18:29.192Z,101439.41
2023-05-06T15:21:01.047Z,101435.44
2023-05-06T15:23:28.721Z,101431.97
2023-05-06T15:25:59.481Z,101422.16
2023-05-06T15:28:27.203Z,101434.13
2023-05-06T15:30:54.865Z,101430.41
2023-05-06T15:33:22.501Z,101433.13
2023-05-06T15:35:50.409Z,101430.88
2023-05-06T15:38:18.054Z,101433.47
2023-05-06T15:40:52.491Z,101435.94
2023-05-06T15:43:23.737Z,101430.78
2023-05-06T15:45:51.827Z,101426.50
2023-05-06T15:48:19.406Z,101433.16
2023-05-06T15:50:47.046Z,101434.25
2023-05-06T15:53:14.711Z,101429.09
2023-05-06T15:55:46.599Z,101435.53
2023-05-06T15:58:21.082Z,101436.72
2023-05-06T16:00:48.641Z,101432.34
2023-05-06T16:03:16.421Z,101436.84
2023-05-06T16:05:44.013Z,101436.97
2023-05-06T16:08:12.196Z,101435.56
2023-05-06T16:10:39.890Z,101437.84
2023-05-06T16:13:07.676Z,101436.63
2023-05-06T16:15:35.748Z,101446.19
2023-05-06T16:18:03.556Z,101453.50
2023-05-06T16:20:32.556Z,101466.56
2023-05-06T16:23:00.485Z,101464.66
2023-05-06T16:25:28.076Z,101469.84
2023-05-06T16:27:56.175Z,101479.00
2023-05-06T16:30:23.795Z,101474.69
2023-05-06T16:32:51.535Z,101486.44
2023-05-06T16:35:19.167Z,101490.69
2023-05-06T16:37:46.769Z,101488.53
2023-05-06T16:40:20.618Z,101499.81
2023-05-06T16:42:49.460Z,101500.31
2023-05-06T16:45:17.415Z,101496.09
2023-05-06T16:47:45.262Z,101504.19
2023-05-06T16:50:13.159Z,101511.38
2023-05-06T16:52:41.452Z,101503.50
2023-05-06T16:55:09.657Z,101506.31
2023-05-06T16:57:37.257Z,101510.75
2023-05-06T17:00:08.163Z,101510.69
2023-05-06T17:02:36.112Z,101512.38
2023-05-06T17:05:04.396Z,101519.31
2023-05-06T17:07:32.347Z,101515.63
2023-05-06T17:10:00.138Z,101516.06
2023-05-06T17:12:27.851Z,101518.97
2023-05-06T17:14:55.390Z,101515.81
2023-05-06T17:17:27.457Z,101520.72
2023-05-06T17:19:59.421Z,101520.94
2023-05-06T17:22:27.098Z,101522.97
2023-05-06T17:24:54.831Z,101518.72
2023-05-06T17:27:22.381Z,101521.59
2023-05-06T17:29:49.984Z,101511.97
2023-05-06T17:32:17.502Z,101515.66
2023-05-06T17:34:45.704Z,101518.53
2023-05-06T17:37:13.310Z,101517.00
2023-05-06T17:39:40.912Z,101525.13
2023-05-06T17:42:10.857Z,101516.41
2023-05-06T17:44:39.348Z,101511.38
2023-05-06T17:47:06.861Z,101516.19
2023-05-06T17:49:34.477Z,101516.69
2023-05-06T17:52:02.209Z,101513.41
2023-05-06T17:54:34.680Z,101513.47
2023-05-06T17:57:03.400Z,101516.13
2023-05-06T17:59:31.061Z,101519.69
2023-05-06T18:01:58.943Z,101514.47
2023-05-06T18:04:26.589Z,101511.88
2023-05-06T18:06:54.301Z,101521.72
2023-05-06T18:09:21.934Z,101525.44
2023-05-06T18:11:49.604Z,101523.97
2023-05-06T18:14:17.457Z,101522.53
2023-05-06T18:16:45.422Z,101517.34
2023-05-06T18:19:13.225Z,101518.38
2023-05-06T18:21:40.770Z,101527.19
2023-05-06T18:24:16.057Z,101521.88
2023-05-06T18:26:46.031Z,101524.63
2023-05-06T18:29:14.093Z,101520.38
2023-05-06T18:31:42.136Z,101525.81
2023-05-06T18:34:10.270Z,101526.81
2023-05-06T18:36:37.816Z,101526.88
2023-05-06T18:39:07.014Z,101535.69
2023-05-06T18:41:34.607Z,101532.25
2023-05-06T18:44:04.453Z,101533.19
2023-05-06T18:46:32.684Z,101531.44
2023-05-06T18:49:01.008Z,101539.41
2023-05-06T18:51:29.850Z,101531.38
2023-05-06T18:53:57.790Z,101523.47
2023-05-06T18:56:25.558Z,101524.38
2023-05-06T18:58:53.263Z,101525.28
2023-05-06T19:01:21.318Z,101528.00
2023-05-06T19:03:48.988Z,101529.84
2023-05-06T19:06:16.889Z,101530.81
2023-05-06T19:08:46.858Z,101535.31
2023-05-06T19:11:21.221Z,101540.63
2023-05-06T19:13:50.604Z,101532.72
2023-05-06T19:16:18.212Z,101538.97
2023-05-06T19:18:47.353Z,101535.53
2023-05-06T19:21:21.679Z,101534.63
2023-05-06T19:23:49.945Z,101539.13
2023-05-06T19:26:17.574Z,101532.16
2023-05-06T19:28:45.103Z,101541.94
2023-05-06T19:31:12.701Z,101539.38
2023-05-06T19:33:40.924Z,101534.97
2023-05-06T19:36:09.326Z,101533.28
2023-05-06T19:38:37.780Z,101541.25
2023-05-06T19:41:06.134Z,101541.34
2023-05-06T19:43:33.811Z,101541.44
2023-05-06T19:46:01.436Z,101533.53
2023-05-06T19:48:29.085Z,101533.63
2023-05-06T19:50:56.867Z,101533.75
2023-05-06T19:53:24.529Z,101532.09
2023-05-06T19:55:59.191Z,101540.97
2023-05-06T19:58:26.811Z,101532.28
2023-05-06T20:00:54.355Z,101541.22
2023-05-06T20:03:22.085Z,101527.13
2023-05-06T20:05:49.819Z,101528.94
2023-05-06T20:08:17.424Z,101529.88
2023-05-06T20:10:45.279Z,101532.53
2023-05-06T20:13:12.938Z,101528.19
2023-05-06T20:15:41.483Z,101526.47
2023-05-06T20:18:09.767Z,101527.41
2023-05-06T20:20:39.955Z,101531.00
2023-05-06T20:23:07.989Z,101534.66
2023-05-06T20:25:37.307Z,101525.78
2023-05-06T20:28:06.964Z,101522.34
2023-05-06T20:30:34.928Z,101511.00
2023-05-06T20:33:03.150Z,101517.16
2023-05-06T20:35:30.891Z,101518.16
2023-05-06T20:38:02.149Z,101520.75
2023-05-06T20:40:31.166Z,101510.25
2023-05-06T20:43:02.405Z,101520.03
2023-05-06T20:45:32.393Z,101518.28
2023-05-06T20:48:00.455Z,101516.63
2023-05-06T20:50:34.191Z,101516.69
2023-05-06T20:53:02.316Z,101517.53
2023-05-06T20:55:30.461Z,101514.97
2023-05-06T20:58:01.711Z,101511.44
2023-05-06T21:00:29.532Z,101508.06
2023-05-06T21:02:57.304Z,101508.13
2023-05-06T21:05:29.172Z,101515.22
2023-05-06T21:07:57.099Z,101516.97
2023-05-06T21:10:24.962Z,101515.28
2023-05-06T21:12:52.713Z,101512.63
2023-05-06T21:15:20.327Z,101514.47
2023-05-06T21:17:49.030Z,101508.31
2023-05-06T21:20:16.865Z,101507.41
2023-05-06T21:22:44.408Z,101504.75
2023-05-06T21:25:13.236Z,101495.09
2023-05-06T21:27:41.037Z,101497.75
2023-05-06T21:30:09.450Z,101500.41
2023-05-06T21:32:37.092Z,101502.25
2023-05-06T21:35:05.406Z,101501.50
2023-05-06T21:37:33.296Z,101507.75
2023-05-06T21:40:04.293Z,101501.69
2023-05-06T21:42:31.931Z,101493.75
2023-05-06T21:44:59.521Z,101502.59
2023-05-06T21:47:27.182Z,101507.91
2023-05-06T21:49:54.888Z,101499.03
2023-05-06T21:52:22.551Z,101511.47
2023-05-06T21:54:50.182Z,101501.75
2023-05-06T21:57:18.850Z,101509.75
2023-05-06T21:59:46.469Z,101514.47
2023-05-06T22:02:14.399Z,101507.72
2023-05-06T22:04:42.404Z,101515.88
2023-05-06T22:07:09.975Z,101528.38
2023-05-06T22:09:37.757Z,101527.66
2023-05-06T22:12:08.568Z,101525.19
2023-05-06T22:14:41.092Z,101523.53
2023-05-06T22:17:10.503Z,101530.53
2023-05-06T22:19:38.611Z,101526.97
2023-05-06T22:22:06.752Z,101526.97
2023-05-06T22:24:34.549Z,101537.69
2023-05-06T22:27:03.104Z,101528.06
2023-05-06T22:29:30.950Z,101527.31
2023-05-06T22:31:58.689Z,101527.38
2023-05-06T22:34:26.487Z,101516.84
2023-05-06T22:36:54.110Z,101522.13
2023-05-06T22:39:21.800Z,101511.53
2023-05-06T22:41:50.855Z,101512.44
2023-05-06T22:44:18.386Z,101514.22
2023-05-06T22:46:46.472Z,101518.72
2023-05-06T22:49:15.948Z,101515.22
2023-05-06T22:51:43.786Z,101509.91
2023-05-06T22:54:11.366Z,101523.13
2023-05-06T22:56:38.975Z,101519.53
2023-05-06T22:59:06.520Z,101518.72
2023-05-06T23:01:34.207Z,101520.53
2023-05-06T23:04:01.914Z,101520.63
2023-05-06T23:06:31.041Z,101516.34
2023-05-06T23:08:58.955Z,101512.97
2023-05-06T23:11:26.498Z,101526.28
2023-05-06T23:13:54.050Z,101524.63
2023-05-06T23:16:21.653Z,101523.81
2023-05-06T23:18:49.284Z,101518.50
2023-05-06T23:21:16.825Z,101520.28
2023-05-06T23:23:44.422Z,101514.16
2023-05-06T23:26:11.987Z,101523.06
2023-05-06T23:28:39.607Z,101509.84
2023-05-06T23:31:07.340Z,101506.38
2023-05-06T23:33:34.938Z,101504.78
2023-05-06T23:36:02.782Z,101509.25
2023-05-06T23:38:30.368Z,101515.53
2023-05-06T23:40:57.958Z,101525.38
2023-05-06T23:43:25.871Z,101518.41
2023-05-06T23:45:53.583Z,101514.09
2023-05-06T23:48:21.202Z,101510.69
2023-05-06T23:50:48.915Z,101509.06
2023-05-06T23:53:16.685Z,101519.75
2023-05-06T23:55:44.411Z,101526.97
2023-05-06T23:58:12.085Z,101515.63
